sensor_id;sensor_type;location;lat;lon;timestamp;P1;durP1;ratioP1;P2;durP2;ratioP2
13319;SDS011;59599;47.608;12.190;2023-03-16T05:02:18;7.70;;;6.23;;
13319;SDS011;59599;47.608;12.190;2023-03-16T05:04:44;7.97;;;7.17;;
13319;SDS011;59599;47.608;12.190;2023-03-16T05:07:10;6.73;;;6.03;;
13319;SDS011;59599;47.608;12.190;2023-03-16T05:09:35;7.77;;;6.97;;
13319;SDS011;59599;47.608;12.190;2023-03-16T05:12:01;7.37;;;6.67;;
13319;SDS011;59599;47.608;12.190;2023-03-16T05:14:27;6.67;;;6.03;;
13319;SDS011;59599;47.608;12.190;2023-03-16T05:16:53;6.73;;;6.03;;
13319;SDS011;59599;47.608;12.190;2023-03-16T05:19:19;6.63;;;5.90;;
13319;SDS011;59599;47.608;12.190;2023-03-16T05:21:45;6.83;;;6.07;;
13319;SDS011;59599;47.608;12.190;2023-03-16T05:24:11;7.33;;;6.03;;
13319;SDS011;59599;47.608;12.190;2023-03-16T05:26:37;6.70;;;5.93;;
13319;SDS011;59599;47.608;12.190;2023-03-16T05:29:03;7.97;;;6.33;;
13319;SDS011;59599;47.608;12.190;2023-03-16T05:31:32;7.93;;;6.97;;
13319;SDS011;59599;47.608;12.190;2023-03-16T05:33:57;7.20;;;6.50;;
13319;SDS011;59599;47.608;12.190;2023-03-16T05:36:23;9.27;;;7.27;;
13319;SDS011;59599;47.608;12.190;2023-03-16T05:38:50;8.67;;;6.93;;
13319;SDS011;59599;47.608;12.190;2023-03-16T05:41:22;5.80;;;5.27;;
13319;SDS011;59599;47.608;12.190;2023-03-16T05:43:48;8.43;;;5.30;;
13319;SDS011;59599;47.608;12.190;2023-03-16T05:46:14;5.90;;;5.30;;
13319;SDS011;59599;47.608;12.190;2023-03-16T05:48:40;8.50;;;6.20;;
13319;SDS011;59599;47.608;12.190;2023-03-16T05:51:06;7.40;;;6.27;;
13319;SDS011;59599;47.608;12.190;2023-03-16T05:53:32;7.80;;;6.33;;
13319;SDS011;59599;47.608;12.190;2023-03-16T05:55:59;8.03;;;6.10;;
13319;SDS011;59599;47.608;12.190;2023-03-16T05:58:26;9.00;;;6.27;;
13319;SDS011;59599;47.608;12.190;2023-03-16T06:00:52;6.53;;;5.90;;
13319;SDS011;59599;47.608;12.190;2023-03-16T06:03:19;6.70;;;6.10;;
13319;SDS011;59599;47.608;12.190;2023-03-16T06:05:46;7.57;;;6.43;;
13319;SDS011;59599;47.608;12.190;2023-03-16T06:08:12;8.67;;;6.37;;
13319;SDS011;59599;47.608;12.190;2023-03-16T06:10:39;6.83;;;6.13;;
13319;SDS011;59599;47.608;12.190;2023-03-16T06:13:05;7.50;;;6.33;;
13319;SDS011;59599;47.608;12.190;2023-03-16T06:15:30;8.37;;;7.53;;
13319;SDS011;59599;47.608;12.190;2023-03-16T06:17:56;7.40;;;6.70;;
13319;SDS011;59599;47.608;12.190;2023-03-16T06:20:22;6.07;;;5.47;;
13319;SDS011;59599;47.608;12.190;2023-03-16T06:22:48;5.80;;;5.20;;
13319;SDS011;59599;47.608;12.190;2023-03-16T06:25:14;5.00;;;4.40;;
13319;SDS011;59599;47.608;12.190;2023-03-16T06:27:40;5.57;;;4.83;;
13319;SDS011;59599;47.608;12.190;2023-03-16T06:30:06;5.47;;;4.97;;
13319;SDS011;59599;47.608;12.190;2023-03-16T06:32:33;5.90;;;5.37;;
13319;SDS011;59599;47.608;12.190;2023-03-16T06:35:01;6.40;;;4.93;;
13319;SDS011;59599;47.608;12.190;2023-03-16T06:37:28;4.83;;;4.33;;
13319;SDS011;59599;47.608;12.190;2023-03-16T06:39:54;6.13;;;4.50;;
13319;SDS011;59599;47.608;12.190;2023-03-16T06:42:19;5.53;;;4.50;;
13319;SDS011;59599;47.608;12.190;2023-03-16T06:44:46;6.10;;;5.27;;
13319;SDS011;59599;47.608;12.190;2023-03-16T06:47:12;6.03;;;4.90;;
13319;SDS011;59599;47.608;12.190;2023-03-16T06:49:38;6.73;;;5.47;;
13319;SDS011;59599;47.608;12.190;2023-03-16T06:52:04;5.20;;;4.70;;
13319;SDS011;59599;47.608;12.190;2023-03-16T06:54:29;6.07;;;5.00;;
13319;SDS011;59599;47.608;12.190;2023-03-16T06:56:58;5.60;;;5.10;;
13319;SDS011;59599;47.608;12.190;2023-03-16T06:59:24;5.50;;;4.83;;
13319;SDS011;59599;47.608;12.190;2023-03-16T07:01:50;4.67;;;4.27;;
13319;SDS011;59599;47.608;12.190;2023-03-16T07:04:16;5.00;;;4.50;;
13319;SDS011;59599;47.608;12.190;2023-03-16T07:06:42;5.83;;;4.80;;
13319;SDS011;59599;47.608;12.190;2023-03-16T07:09:08;5.20;;;4.63;;
13319;SDS011;59599;47.608;12.190;2023-03-16T07:11:34;4.77;;;4.33;;
13319;SDS011;59599;47.608;12.190;2023-03-16T07:13:59;5.43;;;4.50;;
13319;SDS011;59599;47.608;12.190;2023-03-16T07:16:25;5.23;;;4.73;;
13319;SDS011;59599;47.608;12.190;2023-03-16T07:18:52;7.93;;;5.77;;
13319;SDS011;59599;47.608;12.190;2023-03-16T07:21:18;7.00;;;5.93;;
13319;SDS011;59599;47.608;12.190;2023-03-16T07:23:43;5.00;;;4.43;;
13319;SDS011;59599;47.608;12.190;2023-03-16T07:26:09;4.40;;;4.00;;
13319;SDS011;59599;47.608;12.190;2023-03-16T07:28:36;5.10;;;4.50;;
13319;SDS011;59599;47.608;12.190;2023-03-16T07:31:03;4.40;;;3.87;;
13319;SDS011;59599;47.608;12.190;2023-03-16T07:33:29;5.23;;;4.30;;
13319;SDS011;59599;47.608;12.190;2023-03-16T07:35:56;6.37;;;4.43;;
13319;SDS011;59599;47.608;12.190;2023-03-16T07:38:21;6.93;;;4.53;;
13319;SDS011;59599;47.608;12.190;2023-03-16T07:40:47;5.40;;;4.10;;
13319;SDS011;59599;47.608;12.190;2023-03-16T07:43:13;4.60;;;4.20;;
13319;SDS011;59599;47.608;12.190;2023-03-16T07:45:39;5.67;;;4.30;;
13319;SDS011;59599;47.608;12.190;2023-03-16T07:48:05;4.87;;;4.37;;
13319;SDS011;59599;47.608;12.190;2023-03-16T07:50:31;5.43;;;4.00;;
13319;SDS011;59599;47.608;12.190;2023-03-16T07:52:57;4.40;;;4.00;;
13319;SDS011;59599;47.608;12.190;2023-03-16T07:55:23;5.03;;;4.03;;
13319;SDS011;59599;47.608;12.190;2023-03-16T07:57:49;7.10;;;4.30;;
13319;SDS011;59599;47.608;12.190;2023-03-16T08:00:15;5.97;;;4.13;;
13319;SDS011;59599;47.608;12.190;2023-03-16T08:02:44;6.93;;;4.43;;
13319;SDS011;59599;47.608;12.190;2023-03-16T08:05:09;4.47;;;3.90;;
13319;SDS011;59599;47.608;12.190;2023-03-16T08:07:36;4.20;;;3.60;;
13319;SDS011;59599;47.608;12.190;2023-03-16T08:10:02;4.27;;;3.80;;
13319;SDS011;59599;47.608;12.190;2023-03-16T08:12:28;5.00;;;3.97;;
13319;SDS011;59599;47.608;12.190;2023-03-16T08:14:54;4.20;;;3.80;;
13319;SDS011;59599;47.608;12.190;2023-03-16T08:17:20;4.20;;;3.63;;
13319;SDS011;59599;47.608;12.190;2023-03-16T08:19:46;3.77;;;3.20;;
13319;SDS011;59599;47.608;12.190;2023-03-16T08:22:12;4.17;;;3.77;;
13319;SDS011;59599;47.608;12.190;2023-03-16T08:24:38;4.87;;;3.73;;
13319;SDS011;59599;47.608;12.190;2023-03-16T08:27:04;4.77;;;3.87;;
13319;SDS011;59599;47.608;12.190;2023-03-16T08:29:30;6.40;;;4.00;;
13319;SDS011;59599;47.608;12.190;2023-03-16T08:31:58;6.73;;;4.23;;
13319;SDS011;59599;47.608;12.190;2023-03-16T08:34:24;5.80;;;3.93;;
13319;SDS011;59599;47.608;12.190;2023-03-16T08:36:51;4.27;;;3.87;;
13319;SDS011;59599;47.608;12.190;2023-03-16T08:39:17;6.00;;;4.63;;
13319;SDS011;59599;47.608;12.190;2023-03-16T08:41:44;4.30;;;3.90;;
13319;SDS011;59599;47.608;12.190;2023-03-16T08:44:12;5.37;;;4.43;;
13319;SDS011;59599;47.608;12.190;2023-03-16T08:46:38;4.73;;;4.10;;
13319;SDS011;59599;47.608;12.190;2023-03-16T08:49:04;4.17;;;3.60;;
13319;SDS011;59599;47.608;12.190;2023-03-16T08:51:31;5.20;;;4.13;;
13319;SDS011;59599;47.608;12.190;2023-03-16T08:53:57;5.73;;;4.77;;
13319;SDS011;59599;47.608;12.190;2023-03-16T08:56:23;5.17;;;4.00;;
13319;SDS011;59599;47.608;12.190;2023-03-16T08:58:49;5.77;;;4.07;;
13319;SDS011;59599;47.608;12.190;2023-03-16T09:01:15;4.73;;;4.13;;
13319;SDS011;59599;47.608;12.190;2023-03-16T09:03:42;4.57;;;4.03;;
13319;SDS011;59599;47.608;12.190;2023-03-16T09:06:10;9.50;;;3.90;;
13319;SDS011;59599;47.608;12.190;2023-03-16T09:08:38;4.90;;;4.10;;
13319;SDS011;59599;47.608;12.190;2023-03-16T09:11:05;4.90;;;4.10;;
13319;SDS011;59599;47.608;12.190;2023-03-16T09:13:42;6.27;;;3.70;;
13319;SDS011;59599;47.608;12.190;2023-03-16T09:16:09;7.90;;;3.90;;
13319;SDS011;59599;47.608;12.190;2023-03-16T09:18:36;4.00;;;3.60;;
13319;SDS011;59599;47.608;12.190;2023-03-16T09:21:03;4.87;;;3.77;;
13319;SDS011;59599;47.608;12.190;2023-03-16T09:23:30;4.10;;;3.70;;
13319;SDS011;59599;47.608;12.190;2023-03-16T09:25:58;4.70;;;3.40;;
13319;SDS011;59599;47.608;12.190;2023-03-16T09:28:26;3.40;;;3.10;;
13319;SDS011;59599;47.608;12.190;2023-03-16T09:30:55;3.57;;;3.23;;
13319;SDS011;59599;47.608;12.190;2023-03-16T09:33:24;4.50;;;3.77;;
13319;SDS011;59599;47.608;12.190;2023-03-16T09:35:52;8.70;;;4.87;;
13319;SDS011;59599;47.608;12.190;2023-03-16T09:38:19;8.43;;;5.10;;
13319;SDS011;59599;47.608;12.190;2023-03-16T09:40:46;4.97;;;4.40;;
13319;SDS011;59599;47.608;12.190;2023-03-16T09:43:30;3.17;;;2.80;;
13319;SDS011;59599;47.608;12.190;2023-03-16T09:46:27;4.90;;;2.90;;
13319;SDS011;59599;47.608;12.190;2023-03-16T09:48:56;3.50;;;2.93;;
13319;SDS011;59599;47.608;12.190;2023-03-16T09:51:31;3.03;;;2.40;;
13319;SDS011;59599;47.608;12.190;2023-03-16T09:54:02;3.37;;;2.57;;
13319;SDS011;59599;47.608;12.190;2023-03-16T09:56:38;2.83;;;2.50;;
13319;SDS011;59599;47.608;12.190;2023-03-16T09:59:10;2.23;;;2.03;;
13319;SDS011;59599;47.608;12.190;2023-03-16T10:04:25;2.43;;;1.90;;
13319;SDS011;59599;47.608;12.190;2023-03-16T10:07:17;1.90;;;1.70;;
13319;SDS011;59599;47.608;12.190;2023-03-16T10:09:55;2.13;;;1.90;;
13319;SDS011;59599;47.608;12.190;2023-03-16T10:12:24;2.63;;;1.90;;
13319;SDS011;59599;47.608;12.190;2023-03-16T10:14:57;2.27;;;1.93;;
13319;SDS011;59599;47.608;12.190;2023-03-16T10:17:38;2.40;;;2.10;;
13319;SDS011;59599;47.608;12.190;2023-03-16T10:20:19;2.50;;;1.80;;
13319;SDS011;59599;47.608;12.190;2023-03-16T10:22:47;1.90;;;1.70;;
13319;SDS011;59599;47.608;12.190;2023-03-16T10:25:39;2.33;;;1.70;;
13319;SDS011;59599;47.608;12.190;2023-03-16T10:28:16;2.53;;;1.73;;
13319;SDS011;59599;47.608;12.190;2023-03-16T10:30:43;4.17;;;1.63;;
13319;SDS011;59599;47.608;12.190;2023-03-16T10:43:55;1.87;;;1.20;;
13319;SDS011;59599;47.608;12.190;2023-03-16T10:46:35;2.97;;;1.37;;
13319;SDS011;59599;47.608;12.190;2023-03-16T10:49:25;2.10;;;1.50;;
13319;SDS011;59599;47.608;12.190;2023-03-16T10:51:57;1.23;;;1.13;;
13319;SDS011;59599;47.608;12.190;2023-03-16T10:56:50;3.67;;;1.53;;
13319;SDS011;59599;47.608;12.190;2023-03-16T11:01:57;3.77;;;1.30;;
13319;SDS011;59599;47.608;12.190;2023-03-16T11:04:23;1.80;;;1.40;;
13319;SDS011;59599;47.608;12.190;2023-03-16T11:06:53;1.30;;;1.20;;
13319;SDS011;59599;47.608;12.190;2023-03-16T11:09:25;1.43;;;1.13;;
13319;SDS011;59599;47.608;12.190;2023-03-16T11:11:57;4.30;;;1.20;;
13319;SDS011;59599;47.608;12.190;2023-03-16T11:14:26;2.60;;;1.37;;
13319;SDS011;59599;47.608;12.190;2023-03-16T11:17:01;1.30;;;1.00;;
13319;SDS011;59599;47.608;12.190;2023-03-16T11:19:34;1.70;;;1.43;;
13319;SDS011;59599;47.608;12.190;2023-03-16T11:22:24;1.53;;;1.10;;
13319;SDS011;59599;47.608;12.190;2023-03-16T11:27:57;3.93;;;1.30;;
13319;SDS011;59599;47.608;12.190;2023-03-16T11:30:34;1.73;;;1.33;;
13319;SDS011;59599;47.608;12.190;2023-03-16T11:33:08;2.83;;;1.30;;
13319;SDS011;59599;47.608;12.190;2023-03-16T11:35:52;1.57;;;1.20;;
13319;SDS011;59599;47.608;12.190;2023-03-16T11:38:28;2.23;;;1.30;;
13319;SDS011;59599;47.608;12.190;2023-03-16T11:41:00;1.37;;;1.20;;
13319;SDS011;59599;47.608;12.190;2023-03-16T11:43:48;1.50;;;1.30;;
13319;SDS011;59599;47.608;12.190;2023-03-16T11:46:41;1.53;;;1.30;;
13319;SDS011;59599;47.608;12.190;2023-03-16T12:05:45;1.20;;;1.10;;
13319;SDS011;59599;47.608;12.190;2023-03-16T12:08:41;1.20;;;1.10;;
13319;SDS011;59599;47.608;12.190;2023-03-16T12:13:52;1.00;;;0.90;;
13319;SDS011;59599;47.608;12.190;2023-03-16T12:22:19;0.93;;;0.93;;
13319;SDS011;59599;47.608;12.190;2023-03-16T12:24:53;1.97;;;0.97;;
13319;SDS011;59599;47.608;12.190;2023-03-16T12:27:26;2.47;;;0.93;;
13319;SDS011;59599;47.608;12.190;2023-03-16T12:32:37;2.57;;;1.17;;
13319;SDS011;59599;47.608;12.190;2023-03-16T12:35:16;1.60;;;0.90;;
13319;SDS011;59599;47.608;12.190;2023-03-16T12:46:35;2.03;;;1.03;;
13319;SDS011;59599;47.608;12.190;2023-03-16T12:49:12;1.03;;;0.90;;
13319;SDS011;59599;47.608;12.190;2023-03-16T12:51:39;1.17;;;0.90;;
13319;SDS011;59599;47.608;12.190;2023-03-16T12:54:27;1.47;;;1.03;;
13319;SDS011;59599;47.608;12.190;2023-03-16T12:56:52;1.40;;;0.90;;
13319;SDS011;59599;47.608;12.190;2023-03-16T12:59:34;1.40;;;0.90;;
13319;SDS011;59599;47.608;12.190;2023-03-16T13:02:08;1.80;;;0.80;;
13319;SDS011;59599;47.608;12.190;2023-03-16T13:04:42;1.30;;;0.93;;
13319;SDS011;59599;47.608;12.190;2023-03-16T13:07:19;1.30;;;0.83;;
13319;SDS011;59599;47.608;12.190;2023-03-16T13:09:50;1.07;;;0.97;;
13319;SDS011;59599;47.608;12.190;2023-03-16T13:12:22;1.10;;;0.90;;
13319;SDS011;59599;47.608;12.190;2023-03-16T13:14:50;1.43;;;1.07;;
13319;SDS011;59599;47.608;12.190;2023-03-16T13:19:45;1.20;;;1.10;;
13319;SDS011;59599;47.608;12.190;2023-03-16T13:22:50;1.20;;;1.00;;
13319;SDS011;59599;47.608;12.190;2023-03-16T13:27:58;1.27;;;1.10;;
13319;SDS011;59599;47.608;12.190;2023-03-16T13:30:26;1.50;;;1.07;;
13319;SDS011;59599;47.608;12.190;2023-03-16T13:32:55;0.70;;;0.70;;
13319;SDS011;59599;47.608;12.190;2023-03-16T13:35:38;1.92;;;1.00;;
13319;SDS011;59599;47.608;12.190;2023-03-16T13:38:05;2.30;;;1.20;;
13319;SDS011;59599;47.608;12.190;2023-03-16T13:40:37;1.10;;;1.00;;
13319;SDS011;59599;47.608;12.190;2023-03-16T13:43:14;2.03;;;1.10;;
13319;SDS011;59599;47.608;12.190;2023-03-16T13:45:41;2.15;;;1.08;;
13319;SDS011;59599;47.608;12.190;2023-03-16T13:48:14;1.48;;;1.20;;
13319;SDS011;59599;47.608;12.190;2023-03-16T13:50:41;2.80;;;1.20;;
13319;SDS011;59599;47.608;12.190;2023-03-16T13:53:15;2.33;;;1.08;;
13319;SDS011;59599;47.608;12.190;2023-03-16T13:55:45;1.90;;;1.20;;
13319;SDS011;59599;47.608;12.190;2023-03-16T13:58:22;1.20;;;0.90;;
13319;SDS011;59599;47.608;12.190;2023-03-16T14:00:55;3.30;;;1.10;;
13319;SDS011;59599;47.608;12.190;2023-03-16T14:03:29;1.73;;;1.45;;
13319;SDS011;59599;47.608;12.190;2023-03-16T14:05:57;2.45;;;1.38;;
13319;SDS011;59599;47.608;12.190;2023-03-16T14:08:23;1.70;;;1.40;;
13319;SDS011;59599;47.608;12.190;2023-03-16T14:10:50;2.47;;;1.40;;
13319;SDS011;59599;47.608;12.190;2023-03-16T14:16:06;1.88;;;1.42;;
13319;SDS011;59599;47.608;12.190;2023-03-16T14:18:36;1.65;;;1.35;;
13319;SDS011;59599;47.608;12.190;2023-03-16T14:21:06;1.42;;;1.30;;
13319;SDS011;59599;47.608;12.190;2023-03-16T14:23:41;2.92;;;1.38;;
13319;SDS011;59599;47.608;12.190;2023-03-16T14:26:10;2.38;;;1.40;;
13319;SDS011;59599;47.608;12.190;2023-03-16T14:28:39;2.95;;;1.50;;
13319;SDS011;59599;47.608;12.190;2023-03-16T14:31:10;1.88;;;1.50;;
13319;SDS011;59599;47.608;12.190;2023-03-16T14:33:37;2.30;;;1.70;;
13319;SDS011;59599;47.608;12.190;2023-03-16T14:36:09;3.92;;;1.60;;
13319;SDS011;59599;47.608;12.190;2023-03-16T14:38:45;2.17;;;1.50;;
13319;SDS011;59599;47.608;12.190;2023-03-16T14:41:24;2.55;;;1.73;;
13319;SDS011;59599;47.608;12.190;2023-03-16T14:43:59;2.40;;;1.67;;
13319;SDS011;59599;47.608;12.190;2023-03-16T14:46:26;2.47;;;1.70;;
13319;SDS011;59599;47.608;12.190;2023-03-16T14:51:35;1.83;;;1.40;;
13319;SDS011;59599;47.608;12.190;2023-03-16T14:54:16;2.72;;;1.80;;
13319;SDS011;59599;47.608;12.190;2023-03-16T14:56:46;1.73;;;1.50;;
13319;SDS011;59599;47.608;12.190;2023-03-16T14:59:13;2.60;;;1.77;;
13319;SDS011;59599;47.608;12.190;2023-03-16T15:01:39;2.90;;;2.03;;
13319;SDS011;59599;47.608;12.190;2023-03-16T15:04:05;2.25;;;1.88;;
13319;SDS011;59599;47.608;12.190;2023-03-16T15:06:31;1.83;;;1.70;;
13319;SDS011;59599;47.608;12.190;2023-03-16T15:08:58;7.20;;;2.50;;
13319;SDS011;59599;47.608;12.190;2023-03-16T15:11:24;1.67;;;1.52;;
13319;SDS011;59599;47.608;12.190;2023-03-16T15:13:50;4.03;;;1.90;;
13319;SDS011;59599;47.608;12.190;2023-03-16T15:16:16;3.13;;;2.15;;
13319;SDS011;59599;47.608;12.190;2023-03-16T15:18:42;1.95;;;1.67;;
13319;SDS011;59599;47.608;12.190;2023-03-16T15:21:08;2.20;;;1.80;;
13319;SDS011;59599;47.608;12.190;2023-03-16T15:23:40;2.63;;;2.33;;
13319;SDS011;59599;47.608;12.190;2023-03-16T15:26:08;4.93;;;1.83;;
13319;SDS011;59599;47.608;12.190;2023-03-16T15:28:36;2.70;;;2.03;;
13319;SDS011;59599;47.608;12.190;2023-03-16T15:31:02;3.17;;;2.10;;
13319;SDS011;59599;47.608;12.190;2023-03-16T15:33:28;2.00;;;1.80;;
13319;SDS011;59599;47.608;12.190;2023-03-16T15:35:56;3.40;;;2.10;;
13319;SDS011;59599;47.608;12.190;2023-03-16T15:40:56;2.63;;;2.10;;
13319;SDS011;59599;47.608;12.190;2023-03-16T15:43:23;2.53;;;2.00;;
13319;SDS011;59599;47.608;12.190;2023-03-16T15:45:51;2.17;;;1.55;;
13319;SDS011;59599;47.608;12.190;2023-03-16T15:48:18;2.10;;;1.80;;
13319;SDS011;59599;47.608;12.190;2023-03-16T15:51:07;4.00;;;1.83;;
13319;SDS011;59599;47.608;12.190;2023-03-16T15:53:42;1.98;;;1.73;;
13319;SDS011;59599;47.608;12.190;2023-03-16T15:56:12;4.13;;;2.97;;
13319;SDS011;59599;47.608;12.190;2023-03-16T15:58:41;2.05;;;1.88;;
13319;SDS011;59599;47.608;12.190;2023-03-16T16:01:15;4.82;;;1.83;;
13319;SDS011;59599;47.608;12.190;2023-03-16T16:03:52;2.03;;;1.70;;
13319;SDS011;59599;47.608;12.190;2023-03-16T16:06:19;3.42;;;1.90;;
13319;SDS011;59599;47.608;12.190;2023-03-16T16:08:45;2.45;;;1.88;;
13319;SDS011;59599;47.608;12.190;2023-03-16T16:11:14;3.13;;;1.60;;
13319;SDS011;59599;47.608;12.190;2023-03-16T16:13:42;2.47;;;1.83;;
13319;SDS011;59599;47.608;12.190;2023-03-16T16:16:10;4.32;;;2.05;;
13319;SDS011;59599;47.608;12.190;2023-03-16T16:18:37;4.97;;;1.88;;
13319;SDS011;59599;47.608;12.190;2023-03-16T16:21:04;2.22;;;2.00;;
13319;SDS011;59599;47.608;12.190;2023-03-16T16:23:32;4.20;;;1.77;;
13319;SDS011;59599;47.608;12.190;2023-03-16T16:26:00;2.67;;;2.20;;
13319;SDS011;59599;47.608;12.190;2023-03-16T16:28:29;2.08;;;1.88;;
13319;SDS011;59599;47.608;12.190;2023-03-16T16:30:56;4.18;;;2.28;;
13319;SDS011;59599;47.608;12.190;2023-03-16T16:35:54;2.00;;;1.80;;
13319;SDS011;59599;47.608;12.190;2023-03-16T16:38:22;2.08;;;1.65;;
13319;SDS011;59599;47.608;12.190;2023-03-16T16:40:48;2.42;;;1.58;;
13319;SDS011;59599;47.608;12.190;2023-03-16T16:45:56;3.08;;;2.38;;
13319;SDS011;59599;47.608;12.190;2023-03-16T16:48:31;4.75;;;3.38;;
13319;SDS011;59599;47.608;12.190;2023-03-16T16:51:00;4.13;;;2.60;;
13319;SDS011;59599;47.608;12.190;2023-03-16T16:53:26;4.78;;;3.10;;
13319;SDS011;59599;47.608;12.190;2023-03-16T16:55:53;4.70;;;2.90;;
13319;SDS011;59599;47.608;12.190;2023-03-16T16:58:19;5.68;;;3.35;;
13319;SDS011;59599;47.608;12.190;2023-03-16T17:00:53;5.40;;;3.80;;
13319;SDS011;59599;47.608;12.190;2023-03-16T17:03:24;6.07;;;3.80;;
13319;SDS011;59599;47.608;12.190;2023-03-16T17:05:52;3.90;;;3.07;;
13319;SDS011;59599;47.608;12.190;2023-03-16T17:08:19;3.53;;;2.73;;
13319;SDS011;59599;47.608;12.190;2023-03-16T17:10:45;7.33;;;3.57;;
13319;SDS011;59599;47.608;12.190;2023-03-16T17:13:23;11.10;;;7.20;;
13319;SDS011;59599;47.608;12.190;2023-03-16T17:15:52;8.50;;;5.23;;
13319;SDS011;59599;47.608;12.190;2023-03-16T17:18:19;5.37;;;4.27;;
13319;SDS011;59599;47.608;12.190;2023-03-16T17:20:46;5.60;;;4.00;;
13319;SDS011;59599;47.608;12.190;2023-03-16T17:23:18;5.70;;;4.40;;
13319;SDS011;59599;47.608;12.190;2023-03-16T17:25:50;4.88;;;3.38;;
13319;SDS011;59599;47.608;12.190;2023-03-16T17:28:16;5.67;;;3.90;;
13319;SDS011;59599;47.608;12.190;2023-03-16T17:30:42;5.83;;;4.20;;
13319;SDS011;59599;47.608;12.190;2023-03-16T17:33:12;4.97;;;3.43;;
13319;SDS011;59599;47.608;12.190;2023-03-16T17:35:38;4.00;;;3.10;;
13319;SDS011;59599;47.608;12.190;2023-03-16T17:38:19;8.47;;;3.97;;
13319;SDS011;59599;47.608;12.190;2023-03-16T17:40:46;6.77;;;4.90;;
13319;SDS011;59599;47.608;12.190;2023-03-16T17:43:13;8.40;;;4.80;;
13319;SDS011;59599;47.608;12.190;2023-03-16T17:45:41;12.07;;;5.20;;
13319;SDS011;59599;47.608;12.190;2023-03-16T17:48:11;6.97;;;2.97;;
13319;SDS011;59599;47.608;12.190;2023-03-16T17:50:42;4.07;;;2.90;;
13319;SDS011;59599;47.608;12.190;2023-03-16T17:53:14;5.23;;;2.87;;
13319;SDS011;59599;47.608;12.190;2023-03-16T17:55:41;4.17;;;2.50;;
13319;SDS011;59599;47.608;12.190;2023-03-16T17:58:19;10.03;;;2.67;;
13319;SDS011;59599;47.608;12.190;2023-03-16T18:00:45;6.70;;;2.80;;
13319;SDS011;59599;47.608;12.190;2023-03-16T18:03:13;4.63;;;3.23;;
13319;SDS011;59599;47.608;12.190;2023-03-16T18:05:41;7.87;;;5.30;;
13319;SDS011;59599;47.608;12.190;2023-03-16T18:08:18;9.20;;;5.43;;
13319;SDS011;59599;47.608;12.190;2023-03-16T18:10:57;8.70;;;6.60;;
13319;SDS011;59599;47.608;12.190;2023-03-16T18:13:35;12.10;;;7.77;;
13319;SDS011;59599;47.608;12.190;2023-03-16T18:16:03;11.30;;;7.10;;
13319;SDS011;59599;47.608;12.190;2023-03-16T18:18:31;10.80;;;7.03;;
13319;SDS011;59599;47.608;12.190;2023-03-16T18:21:00;11.97;;;7.80;;
13319;SDS011;59599;47.608;12.190;2023-03-16T18:23:28;10.33;;;7.47;;
13319;SDS011;59599;47.608;12.190;2023-03-16T18:25:56;10.60;;;7.50;;
13319;SDS011;59599;47.608;12.190;2023-03-16T18:28:27;12.07;;;8.07;;
13319;SDS011;59599;47.608;12.190;2023-03-16T18:30:55;9.43;;;6.60;;
13319;SDS011;59599;47.608;12.190;2023-03-16T18:33:22;7.10;;;5.87;;
13319;SDS011;59599;47.608;12.190;2023-03-16T18:36:01;9.90;;;5.60;;
13319;SDS011;59599;47.608;12.190;2023-03-16T18:38:30;5.70;;;4.30;;
13319;SDS011;59599;47.608;12.190;2023-03-16T18:41:01;7.93;;;5.00;;
13319;SDS011;59599;47.608;12.190;2023-03-16T18:43:39;16.03;;;7.93;;
13319;SDS011;59599;47.608;12.190;2023-03-16T18:46:08;12.07;;;6.87;;
13319;SDS011;59599;47.608;12.190;2023-03-16T18:48:44;8.10;;;5.53;;
13319;SDS011;59599;47.608;12.190;2023-03-16T18:51:10;7.63;;;4.17;;
13319;SDS011;59599;47.608;12.190;2023-03-16T18:53:40;5.23;;;4.30;;
13319;SDS011;59599;47.608;12.190;2023-03-16T18:56:06;5.73;;;3.00;;
13319;SDS011;59599;47.608;12.190;2023-03-16T18:58:32;5.73;;;3.13;;
13319;SDS011;59599;47.608;12.190;2023-03-16T19:00:58;4.70;;;2.73;;
13319;SDS011;59599;47.608;12.190;2023-03-16T19:03:26;3.73;;;2.87;;
13319;SDS011;59599;47.608;12.190;2023-03-16T19:05:54;4.40;;;3.30;;
13319;SDS011;59599;47.608;12.190;2023-03-16T19:08:21;2.77;;;2.00;;
13319;SDS011;59599;47.608;12.190;2023-03-16T19:10:48;3.30;;;2.17;;
13319;SDS011;59599;47.608;12.190;2023-03-16T19:13:20;2.73;;;2.03;;
13319;SDS011;59599;47.608;12.190;2023-03-16T19:15:47;4.30;;;2.50;;
13319;SDS011;59599;47.608;12.190;2023-03-16T19:18:15;3.70;;;1.93;;
13319;SDS011;59599;47.608;12.190;2023-03-16T19:20:41;2.97;;;2.17;;
13319;SDS011;59599;47.608;12.190;2023-03-16T19:23:29;4.70;;;2.20;;
13319;SDS011;59599;47.608;12.190;2023-03-16T19:25:59;4.30;;;2.93;;
13319;SDS011;59599;47.608;12.190;2023-03-16T19:30:54;11.43;;;7.70;;
13319;SDS011;59599;47.608;12.190;2023-03-16T19:33:21;10.03;;;4.53;;
13319;SDS011;59599;47.608;12.190;2023-03-16T19:35:49;6.17;;;3.87;;
13319;SDS011;59599;47.608;12.190;2023-03-16T19:38:15;12.73;;;9.13;;
13319;SDS011;59599;47.608;12.190;2023-03-16T19:40:42;17.83;;;12.27;;
13319;SDS011;59599;47.608;12.190;2023-03-16T19:43:18;16.80;;;11.50;;
13319;SDS011;59599;47.608;12.190;2023-03-16T19:45:45;9.23;;;4.30;;
13319;SDS011;59599;47.608;12.190;2023-03-16T19:48:13;8.37;;;2.70;;
13319;SDS011;59599;47.608;12.190;2023-03-16T19:50:46;2.70;;;1.90;;
13319;SDS011;59599;47.608;12.190;2023-03-16T19:53:19;4.70;;;1.83;;
13319;SDS011;59599;47.608;12.190;2023-03-16T19:55:47;3.50;;;1.93;;
13319;SDS011;59599;47.608;12.190;2023-03-16T19:58:30;6.50;;;2.67;;
13319;SDS011;59599;47.608;12.190;2023-03-16T20:00:59;14.03;;;8.33;;
13319;SDS011;59599;47.608;12.190;2023-03-16T20:03:26;7.40;;;4.30;;
13319;SDS011;59599;47.608;12.190;2023-03-16T20:05:52;8.23;;;3.50;;
13319;SDS011;59599;47.608;12.190;2023-03-16T20:08:20;5.03;;;3.10;;
13319;SDS011;59599;47.608;12.190;2023-03-16T20:10:49;6.80;;;3.00;;
13319;SDS011;59599;47.608;12.190;2023-03-16T20:13:15;6.83;;;4.07;;
13319;SDS011;59599;47.608;12.190;2023-03-16T20:15:42;7.23;;;3.73;;
13319;SDS011;59599;47.608;12.190;2023-03-16T20:18:12;8.70;;;4.40;;
13319;SDS011;59599;47.608;12.190;2023-03-16T20:20:39;7.73;;;4.00;;
13319;SDS011;59599;47.608;12.190;2023-03-16T20:23:22;8.07;;;3.83;;
13319;SDS011;59599;47.608;12.190;2023-03-16T20:25:50;10.13;;;3.43;;
13319;SDS011;59599;47.608;12.190;2023-03-16T20:28:29;7.57;;;4.33;;
13319;SDS011;59599;47.608;12.190;2023-03-16T20:30:58;10.57;;;4.97;;
13319;SDS011;59599;47.608;12.190;2023-03-16T20:33:24;5.87;;;4.20;;
13319;SDS011;59599;47.608;12.190;2023-03-16T20:35:51;10.40;;;6.03;;
13319;SDS011;59599;47.608;12.190;2023-03-16T20:38:20;10.00;;;4.67;;
13319;SDS011;59599;47.608;12.190;2023-03-16T20:40:48;6.37;;;3.10;;
13319;SDS011;59599;47.608;12.190;2023-03-16T20:43:49;3.37;;;2.60;;
13319;SDS011;59599;47.608;12.190;2023-03-16T20:46:09;3.93;;;2.73;;
13319;SDS011;59599;47.608;12.190;2023-03-16T20:48:40;5.47;;;3.30;;
13319;SDS011;59599;47.608;12.190;2023-03-16T20:51:08;10.67;;;4.10;;
13319;SDS011;59599;47.608;12.190;2023-03-16T20:53:39;6.93;;;3.90;;
13319;SDS011;59599;47.608;12.190;2023-03-16T20:56:08;6.47;;;3.43;;
13319;SDS011;59599;47.608;12.190;2023-03-16T20:58:42;6.87;;;4.10;;
13319;SDS011;59599;47.608;12.190;2023-03-16T21:01:10;5.10;;;3.27;;
13319;SDS011;59599;47.608;12.190;2023-03-16T21:03:46;5.77;;;3.10;;
13319;SDS011;59599;47.608;12.190;2023-03-16T21:08:48;4.83;;;3.00;;
13319;SDS011;59599;47.608;12.190;2023-03-16T21:11:17;3.73;;;2.77;;